Wetterdaten: Woche 25.04.22 - 01.05.22 (KW17)
Datum Zeit Temp. Aussen Temp. o. S. Temp +5cm Feuchte Auss Luftdruck Regen Sonnenschein Regendauer Solar Windben Empfang
25.04.2022 00:00 11,8 C 10,9 C 7,4 C 72 % 1007,3 hPa 0,4 l/m 0,00 h 0,17 h 0 W/m 12,3 km/h (3 Bft) 97,12 %
25.04.2022 01:00 10,6 C 8,7 C 5,2 C 85 % 1007,9 hPa 3,4 l/m 0,00 h 0,83 h 0 W/m 9,8 km/h (2 Bft) 99,43 %
25.04.2022 02:00 9,2 C 7,9 C 4,4 C 91 % 1008,0 hPa 0,0 l/m 0,00 h 0,03 h 0 W/m 8,1 km/h (2 Bft) 93,78 %
25.04.2022 03:00 8,9 C 8,0 C 4,3 C 93 % 1007,9 hPa 0,0 l/m 0,00 h 0,10 h 0 W/m 9,1 km/h (2 Bft) 98,50 %
25.04.2022 04:00 8,3 C 7,3 C 3,7 C 93 % 1007,9 hPa 0,0 l/m 0,00 h 0,00 h 0 W/m 4,4 km/h (1 Bft) 98,57 %
25.04.2022 05:00 7,5 C 6,2 C 3,1 C 93 % 1008,2 hPa 0,0 l/m 0,00 h 0,00 h 0 W/m 1,7 km/h (1 Bft) 96,74 %
25.04.2022 06:00 7,2 C 6,3 C 3,1 C 94 % 1008,7 hPa 0,0 l/m 0,00 h 0,00 h 13 W/m 1,5 km/h (1 Bft) 97,72 %
25.04.2022 07:00 7,5 C 7,3 C 3,6 C 95 % 1009,0 hPa 0,0 l/m 0,00 h 0,00 h 50 W/m 1,6 km/h (1 Bft) 97,51 %
25.04.2022 08:00 8,2 C 8,1 C 4,3 C 96 % 1009,6 hPa 0,0 l/m 0,00 h 0,00 h 47 W/m 0,9 km/h (0 Bft) 97,84 %
25.04.2022 09:00 8,6 C 8,6 C 5,0 C 96 % 1010,0 hPa 0,0 l/m 0,00 h 0,00 h 54 W/m 0,0 km/h (0 Bft) 95,09 %
25.04.2022 10:00 9,1 C 9,3 C 5,7 C 95 % 1010,6 hPa 0,0 l/m 0,00 h 0,00 h 116 W/m 6,3 km/h (2 Bft) 98,93 %
25.04.2022 11:00 9,7 C 10,7 C 6,7 C 94 % 1011,1 hPa 0,2 l/m 0,00 h 0,20 h 278 W/m 12,1 km/h (2 Bft) 97,64 %
25.04.2022 12:00 11,5 C 15,0 C 10,8 C 91 % 1011,4 hPa 0,0 l/m 0,87 h 0,00 h 680 W/m 11,3 km/h (2 Bft) 96,47 %
25.04.2022 13:00 13,1 C 16,3 C 11,0 C 80 % 1011,6 hPa 0,0 l/m 0,73 h 0,00 h 617 W/m 12,0 km/h (2 Bft) 98,65 %
25.04.2022 14:00 13,2 C 15,5 C 10,0 C 77 % 1011,8 hPa 0,0 l/m 0,57 h 0,00 h 472 W/m 13,5 km/h (3 Bft) 98,30 %
25.04.2022 15:00 14,0 C 16,5 C 10,4 C 74 % 1011,8 hPa 0,0 l/m 0,47 h 0,00 h 480 W/m 12,3 km/h (3 Bft) 95,59 %
25.04.2022 16:00 14,4 C 17,2 C 10,7 C 73 % 1011,8 hPa 0,0 l/m 0,53 h 0,00 h 388 W/m 12,8 km/h (3 Bft) 99,29 %
25.04.2022 17:00 14,6 C 16,7 C 10,3 C 74 % 1012,0 hPa 1,4 l/m 0,50 h 0,47 h 297 W/m 15,5 km/h (3 Bft) 96,37 %
25.04.2022 18:00 11,6 C 11,1 C 7,2 C 87 % 1012,2 hPa 0,2 l/m 0,00 h 0,10 h 46 W/m 11,0 km/h (2 Bft) 97,55 %
25.04.2022 19:00 10,8 C 9,4 C 5,9 C 89 % 1012,8 hPa 9,2 l/m 0,00 h 0,93 h 13 W/m 9,1 km/h (2 Bft) 98,65 %
25.04.2022 20:00 9,3 C 8,2 C 5,0 C 93 % 1013,2 hPa 3,8 l/m 0,00 h 0,70 h 0 W/m 7,5 km/h (2 Bft) 97,63 %
25.04.2022 21:00 9,5 C 8,6 C 5,3 C 95 % 1013,7 hPa 0,0 l/m 0,00 h 0,10 h 0 W/m 6,2 km/h (2 Bft) 96,60 %
25.04.2022 22:00 9,8 C 8,9 C 5,6 C 96 % 1014,1 hPa 0,2 l/m 0,00 h 0,37 h 0 W/m 6,5 km/h (2 Bft) 98,58 %
25.04.2022 23:00 9,4 C 8,4 C 5,2 C 96 % 1014,2 hPa 0,4 l/m 0,00 h 0,20 h 0 W/m 7,5 km/h (2 Bft) 97,95 %
26.04.2022 00:00 8,8 C 7,6 C 4,6 C 96 % 1014,3 hPa 0,0 l/m 0,00 h 0,00 h 0 W/m 5,7 km/h (1 Bft) 96,05 %
26.04.2022 01:00 8,1 C 7,0 C 4,2 C 96 % 1014,4 hPa 0,0 l/m 0,00 h 0,00 h 0 W/m 3,1 km/h (1 Bft) 97,83 %
26.04.2022 02:00 8,3 C 7,6 C 4,7 C 97 % 1014,4 hPa 0,0 l/m 0,00 h 0,03 h 0 W/m 4,3 km/h (1 Bft) 98,41 %
26.04.2022 03:00 8,7 C 7,8 C 5,0 C 97 % 1014,5 hPa 1,4 l/m 0,00 h 0,97 h 0 W/m 6,3 km/h (2 Bft) 97,23 %
26.04.2022 04:00 8,6 C 7,8 C 5,0 C 98 % 1014,5 hPa 2,0 l/m 0,00 h 0,90 h 0 W/m 6,9 km/h (2 Bft) 97,49 %
26.04.2022 05:00 8,1 C 7,2 C 4,6 C 98 % 1014,6 hPa 1,0 l/m 0,00 h 0,57 h 0 W/m 8,8 km/h (2 Bft) 99,43 %
26.04.2022 06:00 7,1 C 6,4 C 3,6 C 97 % 1015,0 hPa 0,0 l/m 0,00 h 0,00 h 6 W/m 14,1 km/h (3 Bft) 94,96 %
26.04.2022 07:00 6,9 C 6,3 C 3,4 C 97 % 1015,7 hPa 0,0 l/m 0,00 h 0,00 h 28 W/m 13,2 km/h (3 Bft) 96,96 %
26.04.2022 08:00 7,1 C 6,9 C 4,0 C 97 % 1016,1 hPa 0,0 l/m 0,00 h 0,00 h 76 W/m 11,6 km/h (2 Bft) 97,80 %
26.04.2022 09:00 8,1 C 8,7 C 4,9 C 96 % 1016,5 hPa 0,0 l/m 0,33 h 0,00 h 216 W/m 15,3 km/h (3 Bft) 97,55 %
26.04.2022 10:00 9,2 C 9,8 C 6,2 C 93 % 1017,0 hPa 0,0 l/m 0,10 h 0,00 h 228 W/m 16,3 km/h (3 Bft) 96,67 %
26.04.2022 11:00 10,3 C 11,2 C 7,5 C 90 % 1017,4 hPa 0,0 l/m 0,00 h 0,00 h 247 W/m 16,1 km/h (3 Bft) 98,23 %
26.04.2022 12:00 11,5 C 12,3 C 8,9 C 85 % 1018,0 hPa 0,0 l/m 0,00 h 0,00 h 278 W/m 14,8 km/h (3 Bft) 95,42 %
26.04.2022 13:00 13,0 C 14,4 C 10,4 C 80 % 1018,2 hPa 0,0 l/m 0,40 h 0,00 h 393 W/m 14,5 km/h (3 Bft) 99,56 %
26.04.2022 14:00 14,8 C 17,1 C 11,3 C 73 % 1018,3 hPa 0,0 l/m 0,53 h 0,00 h 557 W/m 20,4 km/h (4 Bft) 97,45 %
26.04.2022 15:00 15,0 C 16,5 C 11,4 C 71 % 1018,3 hPa 0,0 l/m 0,43 h 0,00 h 436 W/m 21,1 km/h (4 Bft) 96,51 %
26.04.2022 16:00 14,9 C 17,3 C 11,3 C 68 % 1018,5 hPa 0,0 l/m 0,70 h 0,00 h 405 W/m 21,5 km/h (4 Bft) 97,94 %
26.04.2022 17:00 15,7 C 19,7 C 12,4 C 64 % 1018,6 hPa 0,0 l/m 1,00 h 0,00 h 515 W/m 25,1 km/h (4 Bft) 98,29 %
26.04.2022 18:00 15,2 C 17,8 C 11,3 C 65 % 1019,0 hPa 0,0 l/m 1,00 h 0,00 h 301 W/m 22,9 km/h (4 Bft) 97,72 %
26.04.2022 19:00 14,1 C 13,5 C 9,7 C 67 % 1019,4 hPa 0,0 l/m 0,00 h 0,00 h 61 W/m 15,2 km/h (3 Bft) 97,87 %
26.04.2022 20:00 13,1 C 12,0 C 8,4 C 69 % 1020,1 hPa 0,0 l/m 0,20 h 0,00 h 22 W/m 8,8 km/h (2 Bft) 96,72 %
26.04.2022 21:00 11,9 C 10,7 C 7,2 C 73 % 1021,0 hPa 0,0 l/m 0,00 h 0,00 h 0 W/m 10,1 km/h (2 Bft) 96,49 %
26.04.2022 22:00 10,3 C 9,4 C 5,9 C 74 % 1021,6 hPa 0,0 l/m 0,00 h 0,00 h 0 W/m 15,9 km/h (3 Bft) 98,51 %
26.04.2022 23:00 9,5 C 8,6 C 5,3 C 76 % 1022,1 hPa 0,0 l/m 0,00 h 0,00 h 0 W/m 14,2 km/h (3 Bft) 96,78 %
27.04.2022 00:00 8,7 C 7,7 C 4,5 C 79 % 1022,6 hPa 0,0 l/m 0,00 h 0,00 h 0 W/m 9,0 km/h (2 Bft) 94,67 %
27.04.2022 01:00 7,9 C 6,9 C 3,6 C 81 % 1023,1 hPa 0,0 l/m 0,00 h 0,00 h 0 W/m 6,3 km/h (2 Bft) 98,01 %
27.04.2022 02:00 7,2 C 6,3 C 3,1 C 83 % 1023,1 hPa 0,0 l/m 0,00 h 0,00 h 0 W/m 6,6 km/h (2 Bft) 97,10 %
27.04.2022 03:00 6,7 C 5,7 C 2,8 C 85 % 1023,4 hPa 0,0 l/m 0,00 h 0,00 h 0 W/m 3,0 km/h (1 Bft) 95,23 %
27.04.2022 04:00 6,2 C 5,4 C 2,3 C 87 % 1023,7 hPa 0,0 l/m 0,00 h 0,00 h 0 W/m 4,1 km/h (1 Bft) 97,96 %
27.04.2022 05:00 5,7 C 4,8 C 1,9 C 88 % 1024,0 hPa 0,0 l/m 0,00 h 0,00 h 0 W/m 2,7 km/h (1 Bft) 98,08 %
27.04.2022 06:00 5,2 C 4,0 C 1,3 C 89 % 1024,5 hPa 0,0 l/m 0,00 h 0,00 h 16 W/m 0,3 km/h (0 Bft) 97,44 %
27.04.2022 07:00 5,5 C 5,4 C 2,3 C 91 % 1025,0 hPa 0,0 l/m 0,00 h 0,00 h 48 W/m 3,4 km/h (1 Bft) 96,29 %
27.04.2022 08:00 7,1 C 8,4 C 3,9 C 91 % 1025,5 hPa 0,0 l/m 0,33 h 0,00 h 159 W/m 7,7 km/h (2 Bft) 96,98 %
27.04.2022 09:00 10,5 C 16,2 C 7,8 C 80 % 1025,9 hPa 0,0 l/m 0,87 h 0,00 h 405 W/m 9,9 km/h (2 Bft) 98,83 %
27.04.2022 10:00 12,4 C 16,8 C 8,9 C 68 % 1026,2 hPa 0,0 l/m 0,83 h 0,00 h 526 W/m 12,4 km/h (3 Bft) 97,03 %
27.04.2022 11:00 13,8 C 16,0 C 10,5 C 62 % 1026,5 hPa 0,0 l/m 1,00 h 0,00 h 734 W/m 11,5 km/h (2 Bft) 99,80 %
27.04.2022 12:00 15,2 C 19,0 C 16,2 C 57 % 1026,4 hPa 0,0 l/m 1,00 h 0,00 h 819 W/m 12,8 km/h (3 Bft) 97,03 %
27.04.2022 13:00 15,9 C 19,4 C 12,8 C 56 % 1026,3 hPa 0,0 l/m 0,95 h 0,00 h 855 W/m 11,8 km/h (2 Bft) 98,89 %
27.04.2022 14:00 16,8 C 21,4 C 12,3 C 55 % 1026,2 hPa 0,0 l/m 1,00 h 0,00 h 850 W/m 13,4 km/h (3 Bft) 99,27 %
27.04.2022 15:00 17,2 C 21,3 C 12,4 C 55 % 1025,9 hPa 0,0 l/m 1,00 h 0,00 h 768 W/m 15,3 km/h (3 Bft) 97,95 %
27.04.2022 16:00 17,8 C 24,6 C 13,5 C 55 % 1025,6 hPa 0,0 l/m 1,00 h 0,00 h 655 W/m 12,9 km/h (3 Bft) 99,85 %
27.04.2022 17:00 17,4 C 22,7 C 13,4 C 55 % 1025,5 hPa 0,0 l/m 1,00 h 0,00 h 496 W/m 13,4 km/h (3 Bft) 99,93 %
27.04.2022 18:00 17,4 C 21,3 C 13,1 C 56 % 1025,4 hPa 0,0 l/m 1,00 h 0,00 h 320 W/m 14,5 km/h (3 Bft) 99,49 %
27.04.2022 19:00 15,8 C 15,2 C 11,1 C 59 % 1025,5 hPa 0,0 l/m 0,08 h 0,00 h 54 W/m 16,9 km/h (3 Bft) 99,93 %
27.04.2022 20:00 14,4 C 13,5 C 9,6 C 61 % 1026,0 hPa 0,0 l/m 0,00 h 0,00 h 18 W/m 12,6 km/h (3 Bft) 98,76 %
27.04.2022 21:00 13,0 C 11,8 C 8,2 C 65 % 1026,6 hPa 0,0 l/m 0,00 h 0,00 h 0 W/m 6,7 km/h (2 Bft) 99,63 %
27.04.2022 22:00 12,0 C 11,0 C 7,5 C 68 % 1027,1 hPa 0,0 l/m 0,00 h 0,00 h 0 W/m 11,3 km/h (2 Bft) 99,78 %
27.04.2022 23:00 10,9 C 9,9 C 6,5 C 71 % 1027,4 hPa 0,0 l/m 0,00 h 0,00 h 0 W/m 9,7 km/h (2 Bft) 99,34 %
28.04.2022 00:00 9,9 C 8,7 C 5,5 C 74 % 1027,9 hPa 0,0 l/m 0,00 h 0,00 h 0 W/m 7,5 km/h (2 Bft) 98,54 %
28.04.2022 01:00 8,9 C 7,7 C 4,6 C 78 % 1028,2 hPa 0,0 l/m 0,00 h 0,00 h 0 W/m 4,8 km/h (1 Bft) 98,54 %
28.04.2022 02:00 8,1 C 7,1 C 4,0 C 80 % 1028,2 hPa 0,0 l/m 0,00 h 0,00 h 0 W/m 6,1 km/h (2 Bft) 99,85 %
28.04.2022 03:00 7,5 C 6,5 C 3,4 C 81 % 1028,3 hPa 0,0 l/m 0,00 h 0,00 h 0 W/m 7,2 km/h (2 Bft) 99,27 %
28.04.2022 04:00 6,9 C 5,9 C 2,8 C 84 % 1028,4 hPa 0,0 l/m 0,00 h 0,00 h 0 W/m 7,5 km/h (2 Bft) 99,05 %
28.04.2022 05:00 6,3 C 5,2 C 2,2 C 86 % 1028,4 hPa 0,0 l/m 0,00 h 0,00 h 0 W/m 2,7 km/h (1 Bft) 100,00 %
28.04.2022 06:00 5,8 C 5,1 C 2,2 C 88 % 1028,7 hPa 0,0 l/m 0,00 h 0,00 h 13 W/m 5,6 km/h (1 Bft) 99,34 %
28.04.2022 07:00 6,2 C 5,9 C 2,6 C 88 % 1029,1 hPa 0,0 l/m 0,00 h 0,00 h 38 W/m 8,3 km/h (2 Bft) 99,93 %
28.04.2022 08:00 7,4 C 8,5 C 3,9 C 86 % 1029,5 hPa 0,0 l/m 0,25 h 0,00 h 145 W/m 12,9 km/h (3 Bft) 98,76 %
28.04.2022 09:00 10,6 C 16,5 C 8,4 C 77 % 1030,0 hPa 0,0 l/m 1,00 h 0,00 h 449 W/m 13,4 km/h (3 Bft) 99,64 %
28.04.2022 10:00 12,9 C 17,9 C 9,5 C 70 % 1030,4 hPa 0,0 l/m 0,67 h 0,00 h 508 W/m 13,7 km/h (3 Bft) 97,73 %
28.04.2022 11:00 14,4 C 17,1 C 11,5 C 65 % 1030,5 hPa 0,0 l/m 1,00 h 0,00 h 767 W/m 15,6 km/h (3 Bft) 99,56 %
28.04.2022 12:00 16,4 C 19,7 C 18,4 C 58 % 1030,3 hPa 0,0 l/m 1,00 h 0,00 h 849 W/m 16,4 km/h (3 Bft) 98,90 %
28.04.2022 13:00 17,1 C 20,3 C 14,0 C 56 % 1030,2 hPa 0,0 l/m 1,00 h 0,00 h 884 W/m 18,0 km/h (3 Bft) 99,05 %
28.04.2022 14:00 18,0 C 22,4 C 13,3 C 54 % 1030,0 hPa 0,0 l/m 1,02 h 0,00 h 858 W/m 11,8 km/h (2 Bft) 99,05 %
28.04.2022 15:00 18,7 C 23,3 C 13,5 C 51 % 1029,6 hPa 0,0 l/m 1,00 h 0,00 h 793 W/m 13,1 km/h (3 Bft) 97,78 %
28.04.2022 16:00 19,3 C 26,0 C 14,4 C 48 % 1029,0 hPa 0,0 l/m 0,95 h 0,00 h 694 W/m 12,2 km/h (2 Bft) 97,44 %
28.04.2022 17:00 20,0 C 25,9 C 15,7 C 49 % 1028,8 hPa 0,0 l/m 1,05 h 0,00 h 500 W/m 9,9 km/h (2 Bft) 97,67 %
28.04.2022 18:00 19,4 C 22,4 C 14,6 C 50 % 1028,6 hPa 0,0 l/m 0,93 h 0,00 h 284 W/m 11,8 km/h (2 Bft) 97,54 %
28.04.2022 19:00 17,2 C 16,7 C 12,5 C 55 % 1028,7 hPa 0,0 l/m 0,07 h 0,00 h 75 W/m 12,2 km/h (3 Bft) 96,46 %
28.04.2022 20:00 15,3 C 14,1 C 10,5 C 59 % 1029,0 hPa 0,0 l/m 0,00 h 0,00 h 17 W/m 7,9 km/h (2 Bft) 99,07 %
28.04.2022 21:00 13,9 C 12,3 C 8,8 C 66 % 1029,4 hPa 0,0 l/m 0,00 h 0,00 h 0 W/m 1,8 km/h (1 Bft) 93,75 %
28.04.2022 22:00 12,6 C 11,1 C 7,6 C 71 % 1029,6 hPa 0,0 l/m 0,00 h 0,00 h 0 W/m 0,5 km/h (0 Bft) 98,83 %
28.04.2022 23:00 11,5 C 10,1 C 6,8 C 76 % 1029,4 hPa 0,0 l/m 0,00 h 0,00 h 0 W/m 0,5 km/h (0 Bft) 98,37 %
29.04.2022 00:00 10,5 C 9,4 C 6,0 C 78 % 1029,4 hPa 0,0 l/m 0,00 h 0,00 h 0 W/m 1,5 km/h (1 Bft) 97,98 %
29.04.2022 01:00 9,8 C 8,4 C 5,2 C 81 % 1029,6 hPa 0,0 l/m 0,00 h 0,00 h 0 W/m 0,5 km/h (0 Bft) 95,38 %
29.04.2022 02:00 9,2 C 8,4 C 5,3 C 82 % 1029,4 hPa 0,0 l/m 0,00 h 0,00 h 0 W/m 1,6 km/h (1 Bft) 98,65 %
29.04.2022 03:00 9,0 C 8,1 C 5,0 C 84 % 1028,9 hPa 0,0 l/m 0,00 h 0,00 h 0 W/m 1,8 km/h (1 Bft) 97,57 %
29.04.2022 04:00 8,7 C 7,8 C 4,8 C 86 % 1028,7 hPa 0,0 l/m 0,00 h 0,00 h 0 W/m 6,1 km/h (2 Bft) 99,07 %
29.04.2022 05:00 8,3 C 7,5 C 4,4 C 87 % 1028,5 hPa 0,0 l/m 0,00 h 0,00 h 0 W/m 6,4 km/h (2 Bft) 95,17 %
29.04.2022 06:00 7,9 C 7,2 C 4,0 C 88 % 1028,5 hPa 0,0 l/m 0,00 h 0,00 h 16 W/m 5,2 km/h (1 Bft) 98,24 %
29.04.2022 07:00 8,1 C 8,0 C 4,5 C 88 % 1028,4 hPa 0,0 l/m 0,00 h 0,00 h 72 W/m 6,1 km/h (2 Bft) 97,58 %
29.04.2022 08:00 8,9 C 9,4 C 5,7 C 86 % 1028,6 hPa 0,0 l/m 0,37 h 0,00 h 159 W/m 7,6 km/h (2 Bft) 96,80 %
29.04.2022 09:00 10,2 C 10,9 C 6,9 C 83 % 1028,6 hPa 0,0 l/m 0,10 h 0,00 h 181 W/m 8,0 km/h (2 Bft) 97,41 %
29.04.2022 10:00 11,5 C 12,4 C 8,1 C 79 % 1028,6 hPa 0,0 l/m 0,17 h 0,00 h 271 W/m 8,4 km/h (2 Bft) 96,65 %
29.04.2022 11:00 13,3 C 14,7 C 10,2 C 74 % 1028,7 hPa 0,0 l/m 1,00 h 0,00 h 444 W/m 11,7 km/h (2 Bft) 97,37 %
29.04.2022 12:00 14,6 C 16,4 C 12,2 C 71 % 1028,6 hPa 0,0 l/m 1,00 h 0,00 h 536 W/m 14,8 km/h (3 Bft) 99,07 %
29.04.2022 13:00 15,7 C 17,3 C 12,3 C 68 % 1028,2 hPa 0,0 l/m 1,00 h 0,00 h 507 W/m 14,9 km/h (3 Bft) 96,94 %
29.04.2022 14:00 15,7 C 16,0 C 11,9 C 66 % 1027,7 hPa 0,0 l/m 0,20 h 0,00 h 306 W/m 13,5 km/h (3 Bft) 96,94 %
29.04.2022 15:00 15,1 C 15,2 C 11,1 C 68 % 1027,5 hPa 0,0 l/m 0,00 h 0,00 h 229 W/m 14,7 km/h (3 Bft) 99,01 %
29.04.2022 16:00 15,2 C 15,8 C 11,4 C 66 % 1027,2 hPa 0,0 l/m 0,73 h 0,00 h 321 W/m 17,6 km/h (3 Bft) 97,30 %
29.04.2022 17:00 14,9 C 15,1 C 11,1 C 65 % 1027,0 hPa 0,0 l/m 0,13 h 0,00 h 210 W/m 17,8 km/h (3 Bft) 96,87 %
29.04.2022 18:00 14,5 C 14,3 C 10,4 C 66 % 1027,0 hPa 0,0 l/m 0,00 h 0,00 h 136 W/m 15,5 km/h (3 Bft) 98,89 %
29.04.2022 19:00 13,7 C 13,4 C 9,6 C 67 % 1026,9 hPa 0,0 l/m 0,00 h 0,00 h 81 W/m 16,4 km/h (3 Bft) 96,88 %
29.04.2022 20:00 13,1 C 12,5 C 8,8 C 68 % 1027,0 hPa 0,0 l/m 0,13 h 0,00 h 23 W/m 10,0 km/h (2 Bft) 97,37 %
29.04.2022 21:00 12,4 C 11,6 C 7,9 C 71 % 1027,4 hPa 0,0 l/m 0,00 h 0,00 h 0 W/m 12,4 km/h (3 Bft) 98,03 %
29.04.2022 22:00 11,1 C 10,3 C 6,9 C 74 % 1027,9 hPa 0,0 l/m 0,00 h 0,00 h 0 W/m 14,7 km/h (3 Bft) 94,80 %
29.04.2022 23:00 10,3 C 9,6 C 6,2 C 74 % 1028,0 hPa 0,0 l/m 0,00 h 0,00 h 0 W/m 14,3 km/h (3 Bft) 98,37 %
30.04.2022 00:00 9,5 C 8,7 C 5,2 C 76 % 1028,1 hPa 0,0 l/m 0,00 h 0,00 h 0 W/m 15,5 km/h (3 Bft) 98,27 %
30.04.2022 01:00 8,6 C 7,9 C 4,5 C 80 % 1028,0 hPa 0,0 l/m 0,00 h 0,00 h 0 W/m 12,5 km/h (3 Bft) 95,73 %
30.04.2022 02:00 8,1 C 7,2 C 4,0 C 81 % 1027,8 hPa 0,0 l/m 0,00 h 0,00 h 0 W/m 10,7 km/h (2 Bft) 98,36 %
30.04.2022 03:00 7,7 C 6,9 C 3,6 C 81 % 1027,6 hPa 0,0 l/m 0,00 h 0,00 h 0 W/m 11,5 km/h (2 Bft) 98,63 %
30.04.2022 04:00 7,1 C 6,4 C 3,1 C 83 % 1027,3 hPa 0,0 l/m 0,00 h 0,00 h 0 W/m 12,0 km/h (2 Bft) 96,37 %
30.04.2022 05:00 6,3 C 5,4 C 2,3 C 86 % 1027,2 hPa 0,0 l/m 0,00 h 0,00 h 0 W/m 10,2 km/h (2 Bft) 97,80 %
30.04.2022 06:00 5,5 C 4,8 C 1,7 C 89 % 1027,3 hPa 0,0 l/m 0,00 h 0,00 h 13 W/m 8,1 km/h (2 Bft) 96,45 %
30.04.2022 07:00 5,5 C 5,2 C 1,9 C 90 % 1027,7 hPa 0,0 l/m 0,00 h 0,00 h 38 W/m 10,3 km/h (2 Bft) 98,22 %
30.04.2022 08:00 6,9 C 7,9 C 3,4 C 90 % 1027,9 hPa 0,0 l/m 0,30 h 0,00 h 163 W/m 13,0 km/h (3 Bft) 96,82 %
30.04.2022 09:00 9,1 C 12,1 C 6,6 C 82 % 1027,9 hPa 0,0 l/m 0,63 h 0,00 h 346 W/m 13,5 km/h (3 Bft) 96,42 %
30.04.2022 10:00 10,8 C 13,8 C 8,2 C 72 % 1027,8 hPa 0,0 l/m 0,70 h 0,00 h 457 W/m 17,0 km/h (3 Bft) 98,57 %
30.04.2022 11:00 12,0 C 14,1 C 9,3 C 65 % 1027,5 hPa 0,0 l/m 0,83 h 0,00 h 687 W/m 16,6 km/h (3 Bft) 97,30 %
30.04.2022 12:00 13,2 C 16,4 C 13,9 C 61 % 1027,2 hPa 0,0 l/m 0,80 h 0,00 h 739 W/m 14,4 km/h (3 Bft) 99,51 %
30.04.2022 13:00 14,6 C 17,8 C 11,8 C 56 % 1026,6 hPa 0,0 l/m 0,83 h 0,00 h 751 W/m 13,6 km/h (3 Bft) 94,83 %
30.04.2022 14:00 15,0 C 17,9 C 11,0 C 53 % 1026,0 hPa 0,0 l/m 0,67 h 0,00 h 692 W/m 15,8 km/h (3 Bft) 98,36 %
30.04.2022 15:00 15,3 C 18,2 C 11,3 C 52 % 1025,5 hPa 0,0 l/m 0,53 h 0,00 h 550 W/m 13,8 km/h (3 Bft) 96,58 %
30.04.2022 16:00 15,0 C 16,5 C 11,0 C 54 % 1025,0 hPa 0,0 l/m 0,27 h 0,00 h 328 W/m 17,4 km/h (3 Bft) 97,93 %
30.04.2022 17:00 14,0 C 14,4 C 10,3 C 61 % 1024,8 hPa 0,0 l/m 0,17 h 0,00 h 208 W/m 18,4 km/h (3 Bft) 98,65 %
30.04.2022 18:00 13,4 C 14,0 C 9,4 C 64 % 1024,7 hPa 0,0 l/m 0,73 h 0,00 h 193 W/m 18,9 km/h (3 Bft) 96,57 %
30.04.2022 19:00 12,9 C 12,6 C 8,7 C 63 % 1024,7 hPa 0,0 l/m 0,17 h 0,00 h 82 W/m 15,1 km/h (3 Bft) 95,91 %
30.04.2022 20:00 12,0 C 11,3 C 7,6 C 67 % 1024,9 hPa 0,0 l/m 0,00 h 0,00 h 18 W/m 12,0 km/h (2 Bft) 98,36 %
30.04.2022 21:00 11,4 C 10,6 C 6,9 C 71 % 1025,1 hPa 0,0 l/m 0,00 h 0,00 h 0 W/m 8,7 km/h (2 Bft) 96,80 %
30.04.2022 22:00 11,0 C 10,1 C 6,7 C 74 % 1025,2 hPa 0,0 l/m 0,00 h 0,00 h 0 W/m 5,9 km/h (2 Bft) 98,09 %
30.04.2022 23:00 10,7 C 9,8 C 6,4 C 76 % 1025,0 hPa 0,0 l/m 0,00 h 0,00 h 0 W/m 5,0 km/h (1 Bft) 97,37 %
01.05.2022 00:00 10,2 C 9,4 C 6,1 C 78 % 1024,8 hPa 0,0 l/m 0,00 h 0,00 h 0 W/m 6,4 km/h (2 Bft) 98,93 %
01.05.2022 01:00 10,0 C 9,4 C 5,9 C 79 % 1024,7 hPa 0,0 l/m 0,00 h 0,00 h 0 W/m 6,3 km/h (2 Bft) 96,23 %
01.05.2022 02:00 9,8 C 9,1 C 5,6 C 80 % 1024,5 hPa 0,0 l/m 0,00 h 0,00 h 0 W/m 5,8 km/h (2 Bft) 97,22 %
01.05.2022 03:00 9,4 C 8,4 C 5,1 C 82 % 1024,4 hPa 0,0 l/m 0,00 h 0,00 h 0 W/m 6,6 km/h (2 Bft) 99,21 %
01.05.2022 04:00 9,2 C 8,3 C 5,0 C 84 % 1024,3 hPa 0,0 l/m 0,00 h 0,00 h 0 W/m 2,8 km/h (1 Bft) 95,48 %
01.05.2022 05:00 8,8 C 7,6 C 4,4 C 85 % 1023,9 hPa 0,0 l/m 0,00 h 0,00 h 0 W/m 2,7 km/h (1 Bft) 98,00 %
01.05.2022 06:00 8,4 C 7,6 C 4,4 C 87 % 1023,9 hPa 0,0 l/m 0,00 h 0,00 h 17 W/m 0,9 km/h (0 Bft) 96,45 %
01.05.2022 07:00 8,6 C 8,4 C 5,1 C 88 % 1024,1 hPa 0,0 l/m 0,00 h 0,00 h 69 W/m 2,3 km/h (1 Bft) 97,37 %
01.05.2022 08:00 9,6 C 10,0 C 6,2 C 86 % 1024,2 hPa 0,0 l/m 0,00 h 0,00 h 118 W/m 4,8 km/h (1 Bft) 97,51 %
01.05.2022 09:00 10,8 C 11,3 C 7,3 C 81 % 1024,3 hPa 0,0 l/m 0,00 h 0,00 h 178 W/m 4,5 km/h (1 Bft) 96,93 %
01.05.2022 10:00 12,0 C 12,9 C 8,6 C 76 % 1024,4 hPa 0,0 l/m 0,37 h 0,00 h 293 W/m 9,1 km/h (2 Bft) 94,95 %
01.05.2022 11:00 13,9 C 15,4 C 10,6 C 65 % 1024,4 hPa 0,0 l/m 0,90 h 0,00 h 397 W/m 11,9 km/h (2 Bft) 99,29 %
01.05.2022 12:00 14,8 C 16,4 C 11,2 C 56 % 1024,2 hPa 0,0 l/m 0,60 h 0,00 h 405 W/m 9,1 km/h (2 Bft) 97,96 %
01.05.2022 13:00 15,2 C 16,8 C 11,7 C 56 % 1023,7 hPa 0,0 l/m 0,57 h 0,00 h 418 W/m 8,3 km/h (2 Bft) 97,22 %
01.05.2022 14:00 15,9 C 18,4 C 12,0 C 55 % 1023,2 hPa 0,0 l/m 0,80 h 0,00 h 585 W/m 11,5 km/h (2 Bft) 96,25 %
01.05.2022 15:00 16,7 C 18,6 C 12,2 C 53 % 1022,7 hPa 0,0 l/m 1,00 h 0,00 h 558 W/m 11,0 km/h (2 Bft) 97,86 %
01.05.2022 16:00 16,7 C 17,8 C 12,2 C 53 % 1022,3 hPa 0,0 l/m 0,67 h 0,00 h 395 W/m 8,1 km/h (2 Bft) 98,64 %
01.05.2022 17:00 16,1 C 16,4 C 11,9 C 55 % 1022,0 hPa 0,0 l/m 0,17 h 0,00 h 212 W/m 7,7 km/h (2 Bft) 97,44 %
01.05.2022 18:00 15,2 C 15,5 C 11,1 C 57 % 1021,7 hPa 0,0 l/m 0,23 h 0,00 h 162 W/m 5,8 km/h (1 Bft) 96,64 %
01.05.2022 19:00 15,1 C 15,1 C 10,8 C 59 % 1021,4 hPa 0,0 l/m 0,50 h 0,00 h 113 W/m 7,1 km/h (2 Bft) 98,72 %
01.05.2022 20:00 14,2 C 13,4 C 9,6 C 61 % 1021,6 hPa 0,0 l/m 0,43 h 0,00 h 30 W/m 4,5 km/h (1 Bft) 97,10 %
01.05.2022 21:00 13,0 C 11,5 C 8,0 C 69 % 1021,9 hPa 0,0 l/m 0,00 h 0,00 h 0 W/m 2,7 km/h (1 Bft) 97,08 %
01.05.2022 22:00 11,7 C 10,5 C 7,1 C 74 % 1022,1 hPa 0,0 l/m 0,00 h 0,00 h 0 W/m 1,3 km/h (1 Bft) 97,45 %
01.05.2022 23:00 11,1 C 10,0 C 6,7 C 77 % 1021,9 hPa 0,0 l/m 0,00 h 0,00 h 0 W/m 1,0 km/h (0 Bft) 99,15 %
Min-Datum _ 27.04.22 27.04.22 27.04.22 28.04.22 25.04.22 - - - - 25.04.22 27.04.22
_ Min-Zeit 06:38 06:12 06:18 16:30 00:02 - - - - 04:24 00:02
Minimum _ 5,1 C 3,9 C 1,1 C 46 % 1006,9 hPa - - - - 0,0 km/h (0 Bft) 14,29 %
Max-Datum _ 28.04.22 28.04.22 28.04.22 26.04.22 28.04.22 25.04.22 27.04.22 25.04.22 30.04.22 26.04.22 25.04.22
_ Max-Zeit 17:52 16:16 12:40 04:06 11:05 19:36 13:55 00:50 14:24 17:24 00:00
Maximum _ 20,2 C 27,2 C 21,1 C 98 % 1030,6 hPa 9,2 l/m 0,08 h 0,03 h 1051 W/m 41,8 km/h
N (6 Bft)
100,00 %
Durchschnitt _ 11,5 C 12,0 C 7,6 C 76 % 1022,9 hPa #23,6 l/m #46:04 h #6:40 h 323 W/m 9,9 km/h (2 Bft) 97,71 %
© 2022 W. Hausmann